Matoaca, Virginia
Current Conditions -  °F | °C
As of 6:55 PM on Monday 22 Dec 2014 (Local Time) from KPTB Reporting Station
Haze Haze  
Wind Chill: 33°   Ceiling: 400
Heat Index: 38°   Visibility: 3mi
Dew Point: 37°   Wind: 7mph
Humidity: 97%   Direction: 360°N
Pressure: 30.1"   Gusts: NA
Location:  37.2163°N, 77.4783°W
Report Text: KPTB 222355Z AUTO 36006KT 3SM BR OVC004 04/03 A3010 RMK AO2 60008 T00350030 10042 20035
Loading
Personal Weather Stations






























Interactive Weather Map New forecast layout! Learn more

10-Day Weather Forecast

Advertisements
Track Severe Weather on mobile